sensor_id;sensor_type;location;lat;lon;timestamp;P1;durP1;ratioP1;P2;durP2;ratioP2
25123;SDS011;13104;51.030;4.686;2023-05-28T00:00:18;25.77;;;8.15;;
25123;SDS011;13104;51.030;4.686;2023-05-28T00:02:44;22.15;;;9.13;;
25123;SDS011;13104;51.030;4.686;2023-05-28T00:05:10;14.90;;;8.00;;
25123;SDS011;13104;51.030;4.686;2023-05-28T00:07:37;21.73;;;8.70;;
25123;SDS011;13104;51.030;4.686;2023-05-28T00:10:04;24.08;;;9.57;;
25123;SDS011;13104;51.030;4.686;2023-05-28T00:12:30;23.17;;;9.13;;
25123;SDS011;13104;51.030;4.686;2023-05-28T00:14:57;24.20;;;9.73;;
25123;SDS011;13104;51.030;4.686;2023-05-28T00:17:24;19.77;;;8.73;;
25123;SDS011;13104;51.030;4.686;2023-05-28T00:19:50;19.17;;;8.88;;
25123;SDS011;13104;51.030;4.686;2023-05-28T00:22:17;24.75;;;9.10;;
25123;SDS011;13104;51.030;4.686;2023-05-28T00:24:43;22.35;;;9.88;;
25123;SDS011;13104;51.030;4.686;2023-05-28T00:27:09;23.00;;;8.57;;
25123;SDS011;13104;51.030;4.686;2023-05-28T00:29:36;22.77;;;9.07;;
25123;SDS011;13104;51.030;4.686;2023-05-28T00:32:02;20.27;;;9.20;;
25123;SDS011;13104;51.030;4.686;2023-05-28T00:34:28;19.85;;;8.95;;
25123;SDS011;13104;51.030;4.686;2023-05-28T00:36:54;23.52;;;9.43;;
25123;SDS011;13104;51.030;4.686;2023-05-28T00:39:20;19.80;;;9.60;;
25123;SDS011;13104;51.030;4.686;2023-05-28T00:41:46;22.88;;;9.95;;
25123;SDS011;13104;51.030;4.686;2023-05-28T00:44:13;27.80;;;9.02;;
25123;SDS011;13104;51.030;4.686;2023-05-28T00:46:40;21.27;;;8.95;;
25123;SDS011;13104;51.030;4.686;2023-05-28T00:49:06;19.15;;;9.30;;
25123;SDS011;13104;51.030;4.686;2023-05-28T00:51:33;21.10;;;9.32;;
25123;SDS011;13104;51.030;4.686;2023-05-28T00:54:00;22.48;;;9.02;;
25123;SDS011;13104;51.030;4.686;2023-05-28T00:56:26;17.70;;;8.73;;
25123;SDS011;13104;51.030;4.686;2023-05-28T00:58:52;21.90;;;9.02;;
25123;SDS011;13104;51.030;4.686;2023-05-28T01:01:20;20.83;;;9.70;;
25123;SDS011;13104;51.030;4.686;2023-05-28T01:03:47;24.08;;;9.18;;
25123;SDS011;13104;51.030;4.686;2023-05-28T01:06:13;24.63;;;9.38;;
25123;SDS011;13104;51.030;4.686;2023-05-28T01:08:42;22.25;;;10.18;;
25123;SDS011;13104;51.030;4.686;2023-05-28T01:11:10;27.42;;;10.25;;
25123;SDS011;13104;51.030;4.686;2023-05-28T01:13:37;24.23;;;10.68;;
25123;SDS011;13104;51.030;4.686;2023-05-28T01:16:03;23.38;;;10.23;;
25123;SDS011;13104;51.030;4.686;2023-05-28T01:18:30;22.48;;;10.38;;
25123;SDS011;13104;51.030;4.686;2023-05-28T01:21:00;22.52;;;9.82;;
25123;SDS011;13104;51.030;4.686;2023-05-28T01:23:28;18.85;;;9.07;;
25123;SDS011;13104;51.030;4.686;2023-05-28T01:25:54;21.73;;;10.18;;
25123;SDS011;13104;51.030;4.686;2023-05-28T01:28:21;23.90;;;11.07;;
25123;SDS011;13104;51.030;4.686;2023-05-28T01:30:47;22.65;;;11.27;;
25123;SDS011;13104;51.030;4.686;2023-05-28T01:33:14;20.38;;;10.35;;
25123;SDS011;13104;51.030;4.686;2023-05-28T01:35:40;24.08;;;10.57;;
25123;SDS011;13104;51.030;4.686;2023-05-28T01:38:07;23.02;;;11.38;;
25123;SDS011;13104;51.030;4.686;2023-05-28T01:40:34;24.02;;;11.45;;
25123;SDS011;13104;51.030;4.686;2023-05-28T01:43:01;25.25;;;11.40;;
25123;SDS011;13104;51.030;4.686;2023-05-28T01:45:28;29.05;;;11.60;;
25123;SDS011;13104;51.030;4.686;2023-05-28T01:47:55;27.90;;;12.05;;
25123;SDS011;13104;51.030;4.686;2023-05-28T01:50:21;27.70;;;11.38;;
25123;SDS011;13104;51.030;4.686;2023-05-28T01:52:47;32.38;;;12.68;;
25123;SDS011;13104;51.030;4.686;2023-05-28T01:55:13;31.10;;;12.45;;
25123;SDS011;13104;51.030;4.686;2023-05-28T01:57:40;27.67;;;12.23;;
25123;SDS011;13104;51.030;4.686;2023-05-28T02:00:06;20.65;;;11.57;;
25123;SDS011;13104;51.030;4.686;2023-05-28T02:02:34;24.00;;;12.45;;
25123;SDS011;13104;51.030;4.686;2023-05-28T02:05:01;23.55;;;11.68;;
25123;SDS011;13104;51.030;4.686;2023-05-28T02:07:27;24.02;;;12.15;;
25123;SDS011;13104;51.030;4.686;2023-05-28T02:09:53;26.25;;;12.52;;
25123;SDS011;13104;51.030;4.686;2023-05-28T02:12:19;29.05;;;12.60;;
25123;SDS011;13104;51.030;4.686;2023-05-28T02:14:46;26.13;;;12.38;;
25123;SDS011;13104;51.030;4.686;2023-05-28T02:17:12;23.33;;;11.82;;
25123;SDS011;13104;51.030;4.686;2023-05-28T02:19:38;26.85;;;12.13;;
25123;SDS011;13104;51.030;4.686;2023-05-28T02:22:05;25.98;;;12.13;;
25123;SDS011;13104;51.030;4.686;2023-05-28T02:24:37;27.40;;;12.40;;
25123;SDS011;13104;51.030;4.686;2023-05-28T02:27:03;27.50;;;12.93;;
25123;SDS011;13104;51.030;4.686;2023-05-28T02:29:29;23.70;;;12.30;;
25123;SDS011;13104;51.030;4.686;2023-05-28T02:31:56;28.65;;;13.02;;
25123;SDS011;13104;51.030;4.686;2023-05-28T02:34:22;30.95;;;12.98;;
25123;SDS011;13104;51.030;4.686;2023-05-28T02:36:48;26.77;;;13.10;;
25123;SDS011;13104;51.030;4.686;2023-05-28T02:39:17;26.25;;;12.70;;
25123;SDS011;13104;51.030;4.686;2023-05-28T02:41:43;28.48;;;13.77;;
25123;SDS011;13104;51.030;4.686;2023-05-28T02:44:10;26.58;;;12.77;;
25123;SDS011;13104;51.030;4.686;2023-05-28T02:46:36;29.38;;;13.90;;
25123;SDS011;13104;51.030;4.686;2023-05-28T02:49:02;28.92;;;12.75;;
25123;SDS011;13104;51.030;4.686;2023-05-28T02:51:28;27.63;;;14.15;;
25123;SDS011;13104;51.030;4.686;2023-05-28T02:53:54;26.98;;;13.85;;
25123;SDS011;13104;51.030;4.686;2023-05-28T02:56:20;30.42;;;14.30;;
25123;SDS011;13104;51.030;4.686;2023-05-28T02:58:47;30.10;;;13.75;;
25123;SDS011;13104;51.030;4.686;2023-05-28T03:01:13;35.67;;;14.52;;
25123;SDS011;13104;51.030;4.686;2023-05-28T03:03:39;35.60;;;14.57;;
25123;SDS011;13104;51.030;4.686;2023-05-28T03:06:06;26.98;;;13.70;;
25123;SDS011;13104;51.030;4.686;2023-05-28T03:08:32;29.42;;;13.38;;
25123;SDS011;13104;51.030;4.686;2023-05-28T03:10:59;32.53;;;14.30;;
25123;SDS011;13104;51.030;4.686;2023-05-28T03:13:25;29.58;;;13.25;;
25123;SDS011;13104;51.030;4.686;2023-05-28T03:15:51;25.75;;;13.27;;
25123;SDS011;13104;51.030;4.686;2023-05-28T03:18:17;30.77;;;13.45;;
25123;SDS011;13104;51.030;4.686;2023-05-28T03:20:43;27.45;;;12.88;;
25123;SDS011;13104;51.030;4.686;2023-05-28T03:23:10;28.17;;;13.98;;
25123;SDS011;13104;51.030;4.686;2023-05-28T03:25:36;27.42;;;13.77;;
25123;SDS011;13104;51.030;4.686;2023-05-28T03:28:02;31.52;;;13.23;;
25123;SDS011;13104;51.030;4.686;2023-05-28T03:30:28;30.48;;;13.70;;
25123;SDS011;13104;51.030;4.686;2023-05-28T03:32:54;34.03;;;15.15;;
25123;SDS011;13104;51.030;4.686;2023-05-28T03:35:21;29.65;;;14.23;;
25123;SDS011;13104;51.030;4.686;2023-05-28T03:37:47;31.83;;;13.77;;
25123;SDS011;13104;51.030;4.686;2023-05-28T03:40:13;31.92;;;14.15;;
25123;SDS011;13104;51.030;4.686;2023-05-28T03:42:40;29.20;;;13.95;;
25123;SDS011;13104;51.030;4.686;2023-05-28T03:45:06;33.90;;;14.52;;
25123;SDS011;13104;51.030;4.686;2023-05-28T03:47:32;26.00;;;13.57;;
25123;SDS011;13104;51.030;4.686;2023-05-28T03:49:59;33.65;;;15.25;;
25123;SDS011;13104;51.030;4.686;2023-05-28T03:52:27;27.25;;;14.57;;
25123;SDS011;13104;51.030;4.686;2023-05-28T03:54:53;31.08;;;14.75;;
25123;SDS011;13104;51.030;4.686;2023-05-28T03:57:20;26.08;;;14.07;;
25123;SDS011;13104;51.030;4.686;2023-05-28T03:59:46;28.88;;;14.27;;
25123;SDS011;13104;51.030;4.686;2023-05-28T04:02:12;29.45;;;14.40;;
25123;SDS011;13104;51.030;4.686;2023-05-28T04:04:38;34.10;;;13.88;;
25123;SDS011;13104;51.030;4.686;2023-05-28T04:07:04;30.80;;;15.07;;
25123;SDS011;13104;51.030;4.686;2023-05-28T04:09:32;26.98;;;13.55;;
25123;SDS011;13104;51.030;4.686;2023-05-28T04:11:58;37.00;;;14.85;;
25123;SDS011;13104;51.030;4.686;2023-05-28T04:14:25;30.52;;;14.25;;
25123;SDS011;13104;51.030;4.686;2023-05-28T04:16:51;33.78;;;14.68;;
25123;SDS011;13104;51.030;4.686;2023-05-28T04:19:19;35.42;;;15.13;;
25123;SDS011;13104;51.030;4.686;2023-05-28T04:21:45;31.77;;;14.95;;
25123;SDS011;13104;51.030;4.686;2023-05-28T04:24:12;29.65;;;15.90;;
25123;SDS011;13104;51.030;4.686;2023-05-28T04:26:38;30.45;;;15.80;;
25123;SDS011;13104;51.030;4.686;2023-05-28T04:29:04;30.63;;;16.00;;
25123;SDS011;13104;51.030;4.686;2023-05-28T04:31:31;28.70;;;14.23;;
25123;SDS011;13104;51.030;4.686;2023-05-28T04:33:57;35.75;;;15.25;;
25123;SDS011;13104;51.030;4.686;2023-05-28T04:36:23;31.02;;;16.05;;
25123;SDS011;13104;51.030;4.686;2023-05-28T04:38:55;32.45;;;16.40;;
25123;SDS011;13104;51.030;4.686;2023-05-28T04:41:26;31.33;;;15.65;;
25123;SDS011;13104;51.030;4.686;2023-05-28T04:43:52;35.38;;;16.70;;
25123;SDS011;13104;51.030;4.686;2023-05-28T04:46:18;30.60;;;16.33;;
25123;SDS011;13104;51.030;4.686;2023-05-28T04:48:44;30.48;;;16.50;;
25123;SDS011;13104;51.030;4.686;2023-05-28T04:51:10;35.17;;;17.02;;
25123;SDS011;13104;51.030;4.686;2023-05-28T04:53:37;26.77;;;16.10;;
25123;SDS011;13104;51.030;4.686;2023-05-28T04:56:03;33.67;;;15.77;;
25123;SDS011;13104;51.030;4.686;2023-05-28T04:58:29;32.92;;;16.42;;
25123;SDS011;13104;51.030;4.686;2023-05-28T05:00:56;31.15;;;15.48;;
25123;SDS011;13104;51.030;4.686;2023-05-28T05:03:22;35.97;;;16.27;;
25123;SDS011;13104;51.030;4.686;2023-05-28T05:05:48;29.63;;;15.80;;
25123;SDS011;13104;51.030;4.686;2023-05-28T05:08:14;28.08;;;15.95;;
25123;SDS011;13104;51.030;4.686;2023-05-28T05:10:41;30.48;;;16.60;;
25123;SDS011;13104;51.030;4.686;2023-05-28T05:13:07;31.88;;;16.92;;
25123;SDS011;13104;51.030;4.686;2023-05-28T05:15:34;32.90;;;17.98;;
25123;SDS011;13104;51.030;4.686;2023-05-28T05:18:00;28.88;;;17.10;;
25123;SDS011;13104;51.030;4.686;2023-05-28T05:20:26;31.75;;;17.50;;
25123;SDS011;13104;51.030;4.686;2023-05-28T05:22:53;32.83;;;18.30;;
25123;SDS011;13104;51.030;4.686;2023-05-28T05:25:19;33.40;;;17.83;;
25123;SDS011;13104;51.030;4.686;2023-05-28T05:27:47;33.20;;;19.90;;
25123;SDS011;13104;51.030;4.686;2023-05-28T05:30:13;36.45;;;19.83;;
25123;SDS011;13104;51.030;4.686;2023-05-28T05:32:39;38.83;;;20.48;;
25123;SDS011;13104;51.030;4.686;2023-05-28T05:35:06;33.75;;;19.63;;
25123;SDS011;13104;51.030;4.686;2023-05-28T05:37:32;32.97;;;19.27;;
25123;SDS011;13104;51.030;4.686;2023-05-28T05:39:58;38.50;;;21.40;;
25123;SDS011;13104;51.030;4.686;2023-05-28T05:42:25;33.60;;;21.17;;
25123;SDS011;13104;51.030;4.686;2023-05-28T05:44:52;36.75;;;20.13;;
25123;SDS011;13104;51.030;4.686;2023-05-28T05:47:18;29.55;;;18.30;;
25123;SDS011;13104;51.030;4.686;2023-05-28T05:49:45;30.95;;;18.10;;
25123;SDS011;13104;51.030;4.686;2023-05-28T05:52:11;39.03;;;18.80;;
25123;SDS011;13104;51.030;4.686;2023-05-28T05:54:37;41.13;;;18.42;;
25123;SDS011;13104;51.030;4.686;2023-05-28T05:57:03;27.67;;;16.23;;
25123;SDS011;13104;51.030;4.686;2023-05-28T05:59:29;28.95;;;17.85;;
25123;SDS011;13104;51.030;4.686;2023-05-28T06:01:56;33.40;;;16.20;;
25123;SDS011;13104;51.030;4.686;2023-05-28T06:04:22;28.83;;;15.85;;
25123;SDS011;13104;51.030;4.686;2023-05-28T06:06:48;30.38;;;15.55;;
25123;SDS011;13104;51.030;4.686;2023-05-28T06:09:14;28.65;;;14.27;;
25123;SDS011;13104;51.030;4.686;2023-05-28T06:11:41;27.85;;;13.90;;
25123;SDS011;13104;51.030;4.686;2023-05-28T06:14:07;30.35;;;13.55;;
25123;SDS011;13104;51.030;4.686;2023-05-28T06:16:33;29.95;;;15.52;;
25123;SDS011;13104;51.030;4.686;2023-05-28T06:18:59;28.33;;;14.63;;
25123;SDS011;13104;51.030;4.686;2023-05-28T06:21:26;30.33;;;14.15;;
25123;SDS011;13104;51.030;4.686;2023-05-28T06:23:52;28.63;;;13.63;;
25123;SDS011;13104;51.030;4.686;2023-05-28T06:26:18;36.03;;;13.40;;
25123;SDS011;13104;51.030;4.686;2023-05-28T06:28:44;33.88;;;14.23;;
25123;SDS011;13104;51.030;4.686;2023-05-28T06:31:10;36.25;;;14.00;;
25123;SDS011;13104;51.030;4.686;2023-05-28T06:33:37;31.05;;;13.70;;
25123;SDS011;13104;51.030;4.686;2023-05-28T06:36:03;30.67;;;13.80;;
25123;SDS011;13104;51.030;4.686;2023-05-28T06:38:29;25.35;;;12.38;;
25123;SDS011;13104;51.030;4.686;2023-05-28T06:40:55;27.77;;;12.77;;
25123;SDS011;13104;51.030;4.686;2023-05-28T06:43:21;27.45;;;13.93;;
25123;SDS011;13104;51.030;4.686;2023-05-28T06:45:47;28.95;;;13.02;;
25123;SDS011;13104;51.030;4.686;2023-05-28T06:48:13;25.23;;;12.68;;
25123;SDS011;13104;51.030;4.686;2023-05-28T06:50:40;29.42;;;12.70;;
25123;SDS011;13104;51.030;4.686;2023-05-28T06:53:06;25.23;;;12.32;;
25123;SDS011;13104;51.030;4.686;2023-05-28T06:55:33;23.38;;;11.85;;
25123;SDS011;13104;51.030;4.686;2023-05-28T06:57:59;25.63;;;13.07;;
25123;SDS011;13104;51.030;4.686;2023-05-28T07:00:25;28.08;;;12.80;;
25123;SDS011;13104;51.030;4.686;2023-05-28T07:02:51;26.20;;;11.70;;
25123;SDS011;13104;51.030;4.686;2023-05-28T07:05:17;23.63;;;12.00;;
25123;SDS011;13104;51.030;4.686;2023-05-28T07:07:44;28.77;;;11.20;;
25123;SDS011;13104;51.030;4.686;2023-05-28T07:10:10;21.20;;;10.90;;
25123;SDS011;13104;51.030;4.686;2023-05-28T07:12:36;31.00;;;11.60;;
25123;SDS011;13104;51.030;4.686;2023-05-28T07:15:03;29.05;;;11.43;;
25123;SDS011;13104;51.030;4.686;2023-05-28T07:17:29;30.10;;;11.05;;
25123;SDS011;13104;51.030;4.686;2023-05-28T07:19:55;22.30;;;11.02;;
25123;SDS011;13104;51.030;4.686;2023-05-28T07:22:21;20.65;;;10.20;;
25123;SDS011;13104;51.030;4.686;2023-05-28T07:24:49;23.23;;;10.65;;
25123;SDS011;13104;51.030;4.686;2023-05-28T07:27:15;19.42;;;10.10;;
25123;SDS011;13104;51.030;4.686;2023-05-28T07:29:41;24.30;;;10.30;;
25123;SDS011;13104;51.030;4.686;2023-05-28T07:32:07;19.90;;;10.38;;
25123;SDS011;13104;51.030;4.686;2023-05-28T07:34:33;24.60;;;9.60;;
25123;SDS011;13104;51.030;4.686;2023-05-28T07:37:00;22.10;;;9.02;;
25123;SDS011;13104;51.030;4.686;2023-05-28T07:39:26;20.73;;;10.10;;
25123;SDS011;13104;51.030;4.686;2023-05-28T07:41:53;20.20;;;8.80;;
25123;SDS011;13104;51.030;4.686;2023-05-28T07:44:19;27.48;;;10.05;;
25123;SDS011;13104;51.030;4.686;2023-05-28T07:46:45;19.15;;;8.85;;
25123;SDS011;13104;51.030;4.686;2023-05-28T07:49:11;18.90;;;8.60;;
25123;SDS011;13104;51.030;4.686;2023-05-28T07:51:37;23.38;;;8.98;;
25123;SDS011;13104;51.030;4.686;2023-05-28T07:54:03;19.52;;;9.23;;
25123;SDS011;13104;51.030;4.686;2023-05-28T07:56:29;26.77;;;9.02;;
25123;SDS011;13104;51.030;4.686;2023-05-28T07:58:56;19.55;;;8.63;;
25123;SDS011;13104;51.030;4.686;2023-05-28T08:01:22;19.05;;;8.27;;
25123;SDS011;13104;51.030;4.686;2023-05-28T08:03:49;18.70;;;8.32;;
25123;SDS011;13104;51.030;4.686;2023-05-28T08:06:16;19.60;;;8.65;;
25123;SDS011;13104;51.030;4.686;2023-05-28T08:08:43;21.13;;;7.82;;
25123;SDS011;13104;51.030;4.686;2023-05-28T08:11:09;19.65;;;8.35;;
25123;SDS011;13104;51.030;4.686;2023-05-28T08:13:38;17.42;;;7.68;;
25123;SDS011;13104;51.030;4.686;2023-05-28T08:16:04;19.52;;;7.63;;
25123;SDS011;13104;51.030;4.686;2023-05-28T08:18:31;12.52;;;6.93;;
25123;SDS011;13104;51.030;4.686;2023-05-28T08:20:57;16.15;;;6.80;;
25123;SDS011;13104;51.030;4.686;2023-05-28T08:23:23;14.38;;;7.05;;
25123;SDS011;13104;51.030;4.686;2023-05-28T08:25:49;17.00;;;7.00;;
25123;SDS011;13104;51.030;4.686;2023-05-28T08:28:16;20.75;;;7.38;;
25123;SDS011;13104;51.030;4.686;2023-05-28T08:30:43;22.73;;;7.05;;
25123;SDS011;13104;51.030;4.686;2023-05-28T08:33:09;14.32;;;7.00;;
25123;SDS011;13104;51.030;4.686;2023-05-28T08:35:35;17.60;;;6.85;;
25123;SDS011;13104;51.030;4.686;2023-05-28T08:38:01;20.60;;;7.57;;
25123;SDS011;13104;51.030;4.686;2023-05-28T08:40:27;19.90;;;7.32;;
25123;SDS011;13104;51.030;4.686;2023-05-28T08:42:53;19.48;;;6.82;;
25123;SDS011;13104;51.030;4.686;2023-05-28T08:45:20;16.98;;;7.25;;
25123;SDS011;13104;51.030;4.686;2023-05-28T08:47:46;19.52;;;6.70;;
25123;SDS011;13104;51.030;4.686;2023-05-28T08:50:13;12.27;;;5.90;;
25123;SDS011;13104;51.030;4.686;2023-05-28T08:52:41;14.70;;;6.20;;
25123;SDS011;13104;51.030;4.686;2023-05-28T08:55:08;17.02;;;6.63;;
25123;SDS011;13104;51.030;4.686;2023-05-28T08:57:34;17.73;;;6.45;;
25123;SDS011;13104;51.030;4.686;2023-05-28T09:00:01;20.75;;;5.93;;
25123;SDS011;13104;51.030;4.686;2023-05-28T09:02:33;16.63;;;5.78;;
25123;SDS011;13104;51.030;4.686;2023-05-28T09:04:59;17.85;;;6.35;;
25123;SDS011;13104;51.030;4.686;2023-05-28T09:07:25;16.27;;;6.20;;
25123;SDS011;13104;51.030;4.686;2023-05-28T09:09:51;13.90;;;5.78;;
25123;SDS011;13104;51.030;4.686;2023-05-28T09:12:21;18.20;;;6.15;;
25123;SDS011;13104;51.030;4.686;2023-05-28T09:14:49;14.48;;;5.57;;
25123;SDS011;13104;51.030;4.686;2023-05-28T09:17:17;12.88;;;5.90;;
25123;SDS011;13104;51.030;4.686;2023-05-28T09:19:50;16.77;;;5.50;;
25123;SDS011;13104;51.030;4.686;2023-05-28T09:22:19;15.45;;;5.70;;
25123;SDS011;13104;51.030;4.686;2023-05-28T09:24:48;14.60;;;5.47;;
25123;SDS011;13104;51.030;4.686;2023-05-28T09:27:15;10.85;;;5.13;;
25123;SDS011;13104;51.030;4.686;2023-05-28T09:29:44;15.02;;;5.65;;
25123;SDS011;13104;51.030;4.686;2023-05-28T09:32:11;13.27;;;5.47;;
25123;SDS011;13104;51.030;4.686;2023-05-28T09:34:43;15.35;;;5.53;;
25123;SDS011;13104;51.030;4.686;2023-05-28T09:37:09;11.98;;;5.68;;
25123;SDS011;13104;51.030;4.686;2023-05-28T09:39:35;16.88;;;5.68;;
25123;SDS011;13104;51.030;4.686;2023-05-28T09:42:02;15.65;;;5.90;;
25123;SDS011;13104;51.030;4.686;2023-05-28T09:44:35;14.85;;;5.03;;
25123;SDS011;13104;51.030;4.686;2023-05-28T09:47:01;16.70;;;5.25;;
25123;SDS011;13104;51.030;4.686;2023-05-28T09:49:27;11.50;;;4.90;;
25123;SDS011;13104;51.030;4.686;2023-05-28T09:51:56;16.48;;;5.38;;
25123;SDS011;13104;51.030;4.686;2023-05-28T09:54:22;15.23;;;5.20;;
25123;SDS011;13104;51.030;4.686;2023-05-28T09:56:51;10.88;;;4.80;;
25123;SDS011;13104;51.030;4.686;2023-05-28T09:59:18;18.70;;;5.25;;
25123;SDS011;13104;51.030;4.686;2023-05-28T10:01:56;10.88;;;4.82;;
25123;SDS011;13104;51.030;4.686;2023-05-28T10:04:23;14.13;;;5.05;;
25123;SDS011;13104;51.030;4.686;2023-05-28T10:06:55;14.48;;;5.20;;
25123;SDS011;13104;51.030;4.686;2023-05-28T10:09:22;12.38;;;5.20;;
25123;SDS011;13104;51.030;4.686;2023-05-28T10:11:50;15.85;;;4.95;;
25123;SDS011;13104;51.030;4.686;2023-05-28T10:14:20;14.50;;;5.80;;
25123;SDS011;13104;51.030;4.686;2023-05-28T10:16:47;16.83;;;5.00;;
25123;SDS011;13104;51.030;4.686;2023-05-28T10:19:13;15.85;;;5.10;;
25123;SDS011;13104;51.030;4.686;2023-05-28T10:21:40;11.82;;;4.88;;
25123;SDS011;13104;51.030;4.686;2023-05-28T10:24:06;11.52;;;4.88;;
25123;SDS011;13104;51.030;4.686;2023-05-28T10:26:33;12.98;;;4.50;;
25123;SDS011;13104;51.030;4.686;2023-05-28T10:28:59;11.95;;;4.75;;
25123;SDS011;13104;51.030;4.686;2023-05-28T10:31:26;15.15;;;5.03;;
25123;SDS011;13104;51.030;4.686;2023-05-28T10:33:52;10.82;;;4.57;;
25123;SDS011;13104;51.030;4.686;2023-05-28T10:36:18;10.07;;;4.20;;
25123;SDS011;13104;51.030;4.686;2023-05-28T10:41:23;12.80;;;4.78;;
25123;SDS011;13104;51.030;4.686;2023-05-28T10:43:52;11.73;;;4.40;;
25123;SDS011;13104;51.030;4.686;2023-05-28T10:46:19;12.32;;;4.50;;
25123;SDS011;13104;51.030;4.686;2023-05-28T10:49:04;17.30;;;4.40;;
25123;SDS011;13104;51.030;4.686;2023-05-28T10:54:15;13.40;;;4.70;;
25123;SDS011;13104;51.030;4.686;2023-05-28T10:59:36;13.02;;;4.55;;
25123;SDS011;13104;51.030;4.686;2023-05-28T11:02:04;14.18;;;4.63;;
25123;SDS011;13104;51.030;4.686;2023-05-28T11:04:34;12.63;;;4.38;;
25123;SDS011;13104;51.030;4.686;2023-05-28T11:07:01;14.85;;;4.68;;
25123;SDS011;13104;51.030;4.686;2023-05-28T11:09:27;12.82;;;4.60;;
25123;SDS011;13104;51.030;4.686;2023-05-28T11:12:02;11.60;;;4.75;;
25123;SDS011;13104;51.030;4.686;2023-05-28T11:14:37;10.77;;;4.47;;
25123;SDS011;13104;51.030;4.686;2023-05-28T11:17:10;11.60;;;4.72;;
25123;SDS011;13104;51.030;4.686;2023-05-28T11:19:43;15.00;;;5.28;;
25123;SDS011;13104;51.030;4.686;2023-05-28T11:22:10;16.75;;;5.70;;
25123;SDS011;13104;51.030;4.686;2023-05-28T11:27:35;12.55;;;4.85;;
25123;SDS011;13104;51.030;4.686;2023-05-28T11:30:12;13.95;;;4.75;;
25123;SDS011;13104;51.030;4.686;2023-05-28T11:32:38;10.02;;;4.35;;
25123;SDS011;13104;51.030;4.686;2023-05-28T11:35:05;13.38;;;4.85;;
25123;SDS011;13104;51.030;4.686;2023-05-28T11:37:35;9.35;;;4.35;;
25123;SDS011;13104;51.030;4.686;2023-05-28T11:40:02;9.65;;;4.57;;
25123;SDS011;13104;51.030;4.686;2023-05-28T11:42:36;12.25;;;4.80;;
25123;SDS011;13104;51.030;4.686;2023-05-28T11:45:02;14.80;;;4.70;;
25123;SDS011;13104;51.030;4.686;2023-05-28T11:47:33;12.82;;;5.00;;
25123;SDS011;13104;51.030;4.686;2023-05-28T11:50:05;14.50;;;4.70;;
25123;SDS011;13104;51.030;4.686;2023-05-28T11:52:31;10.20;;;4.60;;
25123;SDS011;13104;51.030;4.686;2023-05-28T11:54:57;15.20;;;4.88;;
25123;SDS011;13104;51.030;4.686;2023-05-28T11:57:26;13.32;;;4.60;;
25123;SDS011;13104;51.030;4.686;2023-05-28T12:02:21;12.52;;;4.75;;
25123;SDS011;13104;51.030;4.686;2023-05-28T12:04:55;9.30;;;4.10;;
25123;SDS011;13104;51.030;4.686;2023-05-28T12:07:22;13.63;;;4.70;;
25123;SDS011;13104;51.030;4.686;2023-05-28T12:09:48;16.50;;;5.00;;
25123;SDS011;13104;51.030;4.686;2023-05-28T12:12:14;12.68;;;4.28;;
25123;SDS011;13104;51.030;4.686;2023-05-28T12:14:44;14.43;;;4.32;;
25123;SDS011;13104;51.030;4.686;2023-05-28T12:17:11;12.23;;;4.85;;
25123;SDS011;13104;51.030;4.686;2023-05-28T12:19:38;14.38;;;4.80;;
25123;SDS011;13104;51.030;4.686;2023-05-28T12:22:12;12.68;;;4.95;;
25123;SDS011;13104;51.030;4.686;2023-05-28T12:24:52;11.70;;;4.60;;
25123;SDS011;13104;51.030;4.686;2023-05-28T12:27:19;12.90;;;4.55;;
25123;SDS011;13104;51.030;4.686;2023-05-28T12:29:45;13.65;;;4.80;;
25123;SDS011;13104;51.030;4.686;2023-05-28T12:32:11;11.27;;;4.50;;
25123;SDS011;13104;51.030;4.686;2023-05-28T12:34:37;10.45;;;4.30;;
25123;SDS011;13104;51.030;4.686;2023-05-28T12:37:03;13.63;;;4.90;;
25123;SDS011;13104;51.030;4.686;2023-05-28T12:39:30;15.48;;;4.72;;
25123;SDS011;13104;51.030;4.686;2023-05-28T12:41:56;11.77;;;4.80;;
25123;SDS011;13104;51.030;4.686;2023-05-28T12:44:23;10.65;;;4.85;;
25123;SDS011;13104;51.030;4.686;2023-05-28T12:46:49;13.00;;;4.18;;
25123;SDS011;13104;51.030;4.686;2023-05-28T12:49:16;14.27;;;4.72;;
25123;SDS011;13104;51.030;4.686;2023-05-28T12:51:42;10.93;;;4.60;;
25123;SDS011;13104;51.030;4.686;2023-05-28T12:54:08;15.70;;;4.88;;
25123;SDS011;13104;51.030;4.686;2023-05-28T12:56:36;9.95;;;4.38;;
25123;SDS011;13104;51.030;4.686;2023-05-28T12:59:02;11.43;;;4.78;;
25123;SDS011;13104;51.030;4.686;2023-05-28T13:01:28;10.27;;;4.20;;
25123;SDS011;13104;51.030;4.686;2023-05-28T13:03:55;11.43;;;4.57;;
25123;SDS011;13104;51.030;4.686;2023-05-28T13:06:21;10.38;;;4.40;;
25123;SDS011;13104;51.030;4.686;2023-05-28T13:08:47;13.30;;;4.82;;
25123;SDS011;13104;51.030;4.686;2023-05-28T13:11:14;8.70;;;4.20;;
25123;SDS011;13104;51.030;4.686;2023-05-28T13:13:41;11.77;;;4.30;;
25123;SDS011;13104;51.030;4.686;2023-05-28T13:16:07;8.65;;;4.15;;
25123;SDS011;13104;51.030;4.686;2023-05-28T13:18:33;12.00;;;4.65;;
25123;SDS011;13104;51.030;4.686;2023-05-28T13:20:59;12.27;;;5.18;;
25123;SDS011;13104;51.030;4.686;2023-05-28T13:23:25;11.25;;;4.10;;
25123;SDS011;13104;51.030;4.686;2023-05-28T13:25:51;13.10;;;4.30;;
25123;SDS011;13104;51.030;4.686;2023-05-28T13:28:18;9.40;;;4.07;;
25123;SDS011;13104;51.030;4.686;2023-05-28T13:30:45;9.70;;;3.95;;
25123;SDS011;13104;51.030;4.686;2023-05-28T13:33:11;10.35;;;4.13;;
25123;SDS011;13104;51.030;4.686;2023-05-28T13:35:37;10.13;;;3.83;;
25123;SDS011;13104;51.030;4.686;2023-05-28T13:38:03;9.07;;;4.05;;
25123;SDS011;13104;51.030;4.686;2023-05-28T13:40:31;8.48;;;4.03;;
25123;SDS011;13104;51.030;4.686;2023-05-28T13:42:58;11.95;;;4.22;;
25123;SDS011;13104;51.030;4.686;2023-05-28T13:45:24;13.23;;;4.50;;
25123;SDS011;13104;51.030;4.686;2023-05-28T13:47:50;11.02;;;4.20;;
25123;SDS011;13104;51.030;4.686;2023-05-28T13:50:17;11.50;;;4.10;;
25123;SDS011;13104;51.030;4.686;2023-05-28T13:52:43;9.77;;;4.10;;
25123;SDS011;13104;51.030;4.686;2023-05-28T13:55:09;11.02;;;3.70;;
25123;SDS011;13104;51.030;4.686;2023-05-28T13:57:36;9.50;;;4.30;;
25123;SDS011;13104;51.030;4.686;2023-05-28T14:00:02;8.48;;;4.07;;
25123;SDS011;13104;51.030;4.686;2023-05-28T14:02:32;9.52;;;3.63;;
25123;SDS011;13104;51.030;4.686;2023-05-28T14:04:58;9.15;;;4.20;;
25123;SDS011;13104;51.030;4.686;2023-05-28T14:07:25;10.18;;;3.90;;
25123;SDS011;13104;51.030;4.686;2023-05-28T14:09:51;11.82;;;4.18;;
25123;SDS011;13104;51.030;4.686;2023-05-28T14:12:17;11.00;;;3.90;;
25123;SDS011;13104;51.030;4.686;2023-05-28T14:14:44;16.65;;;4.22;;
25123;SDS011;13104;51.030;4.686;2023-05-28T14:17:10;6.70;;;3.63;;
25123;SDS011;13104;51.030;4.686;2023-05-28T14:19:36;11.15;;;4.20;;
25123;SDS011;13104;51.030;4.686;2023-05-28T14:22:03;10.10;;;4.15;;
25123;SDS011;13104;51.030;4.686;2023-05-28T14:24:29;12.82;;;4.07;;
25123;SDS011;13104;51.030;4.686;2023-05-28T14:26:55;8.80;;;3.85;;
25123;SDS011;13104;51.030;4.686;2023-05-28T14:29:21;9.25;;;3.95;;
25123;SDS011;13104;51.030;4.686;2023-05-28T14:31:47;8.82;;;3.50;;
25123;SDS011;13104;51.030;4.686;2023-05-28T14:34:13;11.20;;;3.95;;
25123;SDS011;13104;51.030;4.686;2023-05-28T14:36:39;14.55;;;4.00;;
25123;SDS011;13104;51.030;4.686;2023-05-28T14:39:05;12.10;;;3.80;;